createdAt,value
2023-03-29T00:03:27.965Z,17.08
2023-03-29T00:10:50.233Z,17.17
2023-03-29T00:18:08.606Z,12.13
2023-03-29T00:25:28.467Z,15.25
2023-03-29T00:32:46.986Z,15.70
2023-03-29T00:40:08.635Z,17.77
2023-03-29T00:47:31.604Z,16.55
2023-03-29T00:54:52.102Z,16.88
2023-03-29T01:02:18.285Z,15.52
2023-03-29T01:09:41.459Z,24.33
2023-03-29T01:16:59.916Z,19.35
2023-03-29T01:24:30.437Z,19.85
2023-03-29T01:31:52.926Z,20.15
2023-03-29T01:39:12.072Z,17.42
2023-03-29T01:46:34.671Z,20.20
2023-03-29T01:54:00.575Z,20.40
2023-03-29T02:01:26.110Z,20.60
2023-03-29T02:08:45.565Z,20.70
2023-03-29T02:16:12.519Z,21.25
2023-03-29T02:23:35.086Z,19.50
2023-03-29T02:30:56.642Z,12.93
2023-03-29T02:38:17.263Z,19.13
2023-03-29T02:45:37.791Z,19.48
2023-03-29T02:52:59.836Z,18.85
2023-03-29T03:00:23.304Z,18.30
2023-03-29T03:07:42.712Z,18.95
2023-03-29T03:15:01.247Z,18.08
2023-03-29T03:22:21.030Z,15.95
2023-03-29T03:29:39.421Z,14.65
2023-03-29T03:37:12.107Z,12.68
2023-03-29T03:44:32.254Z,13.20
2023-03-29T03:52:18.373Z,14.23
2023-03-29T03:59:39.062Z,14.07
2023-03-29T04:07:03.854Z,14.88
2023-03-29T04:14:22.255Z,14.70
2023-03-29T04:21:46.170Z,13.52
2023-03-29T04:29:04.840Z,15.77
2023-03-29T04:36:35.662Z,14.90
2023-03-29T04:43:58.148Z,15.23
2023-03-29T04:51:17.736Z,16.48
2023-03-29T04:58:36.881Z,16.17
2023-03-29T05:05:57.540Z,14.95
2023-03-29T05:13:17.189Z,13.77
2023-03-29T05:20:35.550Z,11.68
2023-03-29T05:27:55.480Z,12.00
2023-03-29T05:35:13.950Z,14.00
2023-03-29T05:42:32.439Z,13.73
2023-03-29T05:49:58.562Z,15.45
2023-03-29T05:57:18.431Z,15.02
2023-03-29T06:04:37.600Z,14.15
2023-03-29T06:12:12.400Z,10.80
2023-03-29T06:19:36.773Z,11.63
2023-03-29T06:26:55.280Z,10.48
2023-03-29T06:34:16.597Z,9.75
2023-03-29T06:42:20.052Z,10.32
2023-03-29T06:49:59.668Z,9.60
2023-03-29T06:57:23.008Z,10.27
2023-03-29T07:04:42.761Z,9.30
2023-03-29T07:12:13.523Z,8.88
2023-03-29T07:19:32.416Z,9.60
2023-03-29T07:27:08.973Z,7.20
2023-03-29T07:34:30.165Z,6.07
2023-03-29T07:41:48.789Z,5.68
2023-03-29T07:49:08.888Z,5.22
2023-03-29T07:56:29.219Z,5.85
2023-03-29T08:04:08.513Z,5.63
2023-03-29T08:11:57.687Z,5.15
2023-03-29T08:19:22.594Z,5.10
2023-03-29T08:26:54.916Z,5.07
2023-03-29T08:34:15.310Z,5.88
2023-03-29T08:41:51.439Z,4.10
2023-03-29T08:49:12.433Z,3.90
2023-03-29T08:56:34.489Z,3.85
2023-03-29T09:04:15.189Z,3.83
2023-03-29T09:11:58.344Z,2.80
2023-03-29T09:19:23.549Z,3.53
2023-03-29T09:26:48.170Z,3.30
2023-03-29T09:34:23.250Z,3.03
2023-03-29T09:41:51.671Z,4.10
2023-03-29T09:49:17.171Z,3.83
2023-03-29T09:56:36.069Z,4.20
2023-03-29T10:04:07.844Z,3.78
2023-03-29T10:11:31.565Z,3.10
2023-03-29T10:26:15.067Z,3.70
2023-03-29T10:33:35.571Z,4.60
2023-03-29T10:40:54.690Z,4.38
2023-03-29T10:48:16.406Z,4.00
2023-03-29T10:55:41.355Z,4.60
2023-03-29T11:03:35.447Z,3.80
2023-03-29T11:11:01.405Z,4.18
2023-03-29T11:18:42.995Z,4.07
2023-03-29T11:26:08.023Z,3.50
2023-03-29T11:33:34.850Z,4.53
2023-03-29T11:40:59.216Z,4.60
2023-03-29T11:48:22.409Z,4.28
2023-03-29T11:55:41.532Z,4.05
2023-03-29T12:03:03.479Z,2.78
2023-03-29T12:10:23.777Z,2.78
2023-03-29T12:17:46.504Z,3.13
2023-03-29T12:25:10.372Z,2.85
2023-03-29T12:32:52.698Z,3.67
2023-03-29T12:40:38.146Z,4.32
2023-03-29T12:48:17.618Z,3.45
2023-03-29T12:55:52.346Z,4.68
2023-03-29T13:03:22.920Z,3.38
2023-03-29T13:10:43.867Z,3.50
2023-03-29T13:18:12.265Z,3.50
2023-03-29T13:25:58.767Z,2.90
2023-03-29T13:33:50.478Z,3.70
2023-03-29T13:41:27.752Z,3.55
2023-03-29T13:49:07.350Z,3.15
2023-03-29T13:56:31.752Z,3.30
2023-03-29T14:03:51.749Z,3.40
2023-03-29T14:11:21.232Z,4.10
2023-03-29T14:18:44.691Z,3.53
2023-03-29T14:33:27.539Z,3.33
2023-03-29T14:40:47.206Z,3.80
2023-03-29T14:48:06.129Z,3.50
2023-03-29T14:55:25.645Z,3.30
2023-03-29T15:02:52.774Z,3.28
2023-03-29T15:10:21.366Z,2.28
2023-03-29T15:17:51.234Z,3.28
2023-03-29T15:25:17.765Z,3.70
2023-03-29T15:32:38.922Z,3.25
2023-03-29T15:39:58.399Z,3.28
2023-03-29T15:47:18.388Z,3.83
2023-03-29T15:54:37.348Z,3.15
2023-03-29T16:01:55.984Z,2.90
2023-03-29T16:09:16.203Z,4.10
2023-03-29T16:16:35.180Z,3.80
2023-03-29T16:23:53.724Z,3.72
2023-03-29T16:31:15.066Z,3.90
2023-03-29T16:38:34.252Z,3.75
2023-03-29T16:45:53.620Z,3.65
2023-03-29T16:53:13.576Z,4.07
2023-03-29T17:00:33.580Z,3.63
2023-03-29T17:07:51.812Z,4.05
2023-03-29T17:15:13.025Z,4.28
2023-03-29T17:22:31.331Z,3.80
2023-03-29T17:29:50.430Z,3.95
2023-03-29T17:37:10.240Z,3.83
2023-03-29T17:44:28.476Z,4.28
2023-03-29T17:51:47.267Z,5.00
2023-03-29T17:59:06.914Z,4.70
2023-03-29T18:06:25.135Z,3.75
2023-03-29T18:13:44.366Z,4.78
2023-03-29T18:21:04.389Z,4.80
2023-03-29T18:28:25.115Z,4.60
2023-03-29T18:35:48.681Z,5.10
2023-03-29T18:43:08.535Z,5.28
2023-03-29T18:50:27.261Z,5.50
2023-03-29T18:57:45.550Z,6.15
2023-03-29T19:05:05.705Z,5.05
2023-03-29T19:12:24.127Z,5.93
2023-03-29T19:19:42.636Z,6.70
2023-03-29T19:27:03.264Z,6.95
2023-03-29T19:34:24.038Z,7.03
2023-03-29T19:41:42.432Z,6.22
2023-03-29T19:49:04.406Z,6.70
2023-03-29T19:56:26.001Z,7.35
2023-03-29T20:03:46.478Z,7.18
2023-03-29T20:11:10.743Z,9.38
2023-03-29T20:18:29.034Z,7.28
2023-03-29T20:25:47.419Z,7.60
2023-03-29T20:33:07.577Z,7.80
2023-03-29T20:40:26.135Z,7.47
2023-03-29T20:47:50.503Z,8.20
2023-03-29T20:55:12.569Z,8.20
2023-03-29T21:02:31.754Z,8.02
2023-03-29T21:09:50.506Z,7.07
2023-03-29T21:17:10.473Z,7.28
2023-03-29T21:24:28.702Z,6.35
2023-03-29T21:31:46.990Z,7.43
2023-03-29T21:39:06.947Z,7.82
2023-03-29T21:46:26.000Z,9.07
2023-03-29T21:53:44.274Z,9.02
2023-03-29T22:01:05.419Z,8.52
2023-03-29T22:08:26.412Z,8.52
2023-03-29T22:15:45.347Z,8.50
2023-03-29T22:23:04.949Z,7.93
2023-03-29T22:30:23.574Z,9.25
2023-03-29T22:37:42.805Z,9.20
2023-03-29T22:45:02.566Z,8.50
2023-03-29T22:52:20.750Z,7.90
2023-03-29T22:59:39.147Z,8.43
2023-03-29T23:07:00.307Z,8.65
2023-03-29T23:14:19.123Z,8.13
2023-03-29T23:21:37.927Z,8.02
2023-03-29T23:28:57.900Z,7.95
2023-03-29T23:36:17.721Z,8.00
2023-03-29T23:43:37.359Z,8.15
2023-03-29T23:50:58.162Z,8.57
2023-03-29T23:58:16.869Z,8.35
